Time;durP1;ratioP1;P1;durP2;ratioP2;P2;SDS_P1;SDS_P2;PMS_P1;PMS_P2;Temp;Humidity;BMP_temperature;BMP_pressure;BME280_temperature;BME280_humidity;BME280_pressure;Samples;Min_cycle;Max_cycle;Signal;HPM_P1;HPM_P2
2021/01/01 00:00:48;;;;;;;22.63;14.10;;;2.80;99.90;;;;;;5035839;28;20026;-70
2021/01/01 00:03:14;;;;;;;22.27;14.05;;;2.80;99.90;;;;;;5022298;28;20032;-70
2021/01/01 00:05:41;;;;;;;21.77;13.27;;;2.80;99.90;;;;;;5032101;28;20029;-70
2021/01/01 00:08:08;;;;;;;25.60;15.15;;;2.80;99.90;;;;;;5037957;28;20033;-70
2021/01/01 00:10:39;;;;;;;28.30;17.40;;;2.80;99.90;;;;;;5022347;28;20052;-70
2021/01/01 00:13:07;;;;;;;29.90;18.13;;;2.80;99.90;;;;;;5019856;28;20048;-70
2021/01/01 00:15:35;;;;;;;32.78;18.95;;;2.80;99.90;;;;;;5022857;28;20127;-70
2021/01/01 00:18:03;;;;;;;33.95;19.90;;;2.80;99.90;;;;;;5021171;28;20048;-70
2021/01/01 00:20:29;;;;;;;32.70;19.90;;;2.80;99.90;;;;;;5021741;28;20033;-70
2021/01/01 00:22:54;;;;;;;30.42;18.50;;;2.80;99.90;;;;;;5020691;28;20040;-70
2021/01/01 00:25:22;;;;;;;25.65;16.73;;;2.80;99.90;;;;;;5021573;28;20022;-70
2021/01/01 00:27:48;;;;;;;27.63;16.70;;;2.80;99.90;;;;;;5021282;28;20040;-70
2021/01/01 00:30:14;;;;;;;27.67;17.48;;;2.80;99.90;;;;;;5026526;28;20025;-69
2021/01/01 00:32:43;;;;;;;33.15;18.52;;;2.80;99.90;;;;;;5028253;28;20029;-70
2021/01/01 00:35:17;;;;;;;28.48;17.65;;;2.80;99.90;;;;;;5041333;28;20025;-70
2021/01/01 00:37:43;;;;;;;27.83;16.98;;;2.80;99.90;;;;;;5023850;28;20042;-69
2021/01/01 00:40:11;;;;;;;38.90;21.65;;;2.80;99.90;;;;;;5024603;28;20035;-70
2021/01/01 00:42:39;;;;;;;38.00;19.25;;;2.80;99.90;;;;;;5023311;28;20069;-70
2021/01/01 00:45:06;;;;;;;30.27;18.88;;;2.80;99.90;;;;;;5025600;28;20017;-70
2021/01/01 00:47:34;;;;;;;28.42;17.27;;;2.80;99.90;;;;;;5005226;28;20159;-70
2021/01/01 00:49:59;;;;;;;24.75;15.38;;;2.80;99.90;;;;;;5021652;28;20056;-70
2021/01/01 00:52:27;;;;;;;27.38;16.17;;;2.80;99.90;;;;;;5025722;28;20033;-70
2021/01/01 00:54:55;;;;;;;23.55;14.73;;;2.80;99.90;;;;;;5025889;28;20072;-70
2021/01/01 00:57:24;;;;;;;22.92;14.48;;;2.80;99.90;;;;;;5026523;28;20112;-70
2021/01/01 00:59:52;;;;;;;24.45;15.27;;;2.80;99.90;;;;;;5024775;28;20344;-70
2021/01/01 01:02:17;;;;;;;21.67;14.15;;;2.80;99.90;;;;;;5024365;28;20029;-70
2021/01/01 01:04:48;;;;;;;23.30;14.35;;;2.80;99.90;;;;;;5024955;28;20083;-70
2021/01/01 01:07:14;;;;;;;21.50;13.13;;;2.80;99.90;;;;;;5022381;28;20030;-70
2021/01/01 01:09:40;;;;;;;16.20;10.70;;;2.80;99.90;;;;;;5023995;28;20034;-70
2021/01/01 01:12:05;;;;;;;21.70;12.98;;;2.80;99.90;;;;;;5007012;28;20433;-72
2021/01/01 01:14:33;;;;;;;16.05;9.90;;;2.70;99.90;;;;;;5055607;28;20116;-69
2021/01/01 01:16:59;;;;;;;18.95;10.75;;;2.80;99.90;;;;;;5024845;28;20121;-69
2021/01/01 01:19:29;;;;;;;16.90;10.02;;;2.70;99.90;;;;;;5027819;28;20046;-75
2021/01/01 01:21:55;;;;;;;18.40;10.07;;;2.70;99.90;;;;;;4677783;28;10000456;-69
2021/01/01 01:24:21;;;;;;;17.67;9.77;;;2.70;99.90;;;;;;5021525;28;20026;-69
2021/01/01 01:26:53;;;;;;;13.70;8.57;;;2.70;99.90;;;;;;5023648;28;20075;-70
2021/01/01 01:29:18;;;;;;;22.83;13.10;;;2.80;99.90;;;;;;5022530;28;20025;-69
2021/01/01 01:31:46;;;;;;;18.83;11.60;;;2.70;99.90;;;;;;5020388;28;20386;-70
2021/01/01 01:34:14;;;;;;;13.13;8.43;;;2.70;99.90;;;;;;5018220;28;20053;-70
2021/01/01 01:36:42;;;;;;;13.02;8.82;;;2.80;99.90;;;;;;5052532;28;20437;-70
2021/01/01 01:39:08;;;;;;;11.52;8.07;;;2.70;99.90;;;;;;5021298;28;20105;-70
2021/01/01 01:41:34;;;;;;;13.30;8.10;;;2.80;99.90;;;;;;5015056;28;20048;-70
2021/01/01 01:43:59;;;;;;;14.90;9.35;;;2.80;99.90;;;;;;5055558;28;20811;-70
2021/01/01 01:46:40;;;;;;;13.65;8.35;;;2.80;99.90;;;;;;5026376;28;20382;-70
2021/01/01 01:49:06;;;;;;;13.85;8.82;;;2.80;99.90;;;;;;5053800;28;20108;-70
2021/01/01 01:51:35;;;;;;;13.30;8.35;;;2.80;99.90;;;;;;5058594;28;20601;-70
2021/01/01 01:54:01;;;;;;;13.73;7.85;;;2.80;99.90;;;;;;5059198;28;20044;-70
2021/01/01 01:56:27;;;;;;;13.27;8.07;;;2.80;99.90;;;;;;5027087;28;20118;-70
2021/01/01 01:58:52;;;;;;;12.80;8.13;;;2.80;99.90;;;;;;5024693;28;20022;-70
2021/01/01 02:01:22;;;;;;;16.40;9.80;;;2.80;99.90;;;;;;5008974;28;20554;-70
2021/01/01 02:03:50;;;;;;;12.38;7.95;;;2.80;99.90;;;;;;5024465;28;20029;-70
2021/01/01 02:06:15;;;;;;;15.75;9.00;;;2.80;99.90;;;;;;5023636;28;20084;-70
2021/01/01 02:08:41;;;;;;;12.70;7.70;;;2.80;99.90;;;;;;5042953;28;20026;-70
2021/01/01 02:11:07;;;;;;;11.82;7.28;;;2.80;99.90;;;;;;5057834;28;20064;-70
2021/01/01 02:13:36;;;;;;;15.73;9.38;;;2.80;99.90;;;;;;5025645;28;20124;-70
2021/01/01 02:16:01;;;;;;;13.55;8.48;;;2.80;99.90;;;;;;5041142;28;20475;-71
2021/01/01 02:18:39;;;;;;;13.90;8.88;;;2.80;99.90;;;;;;5040207;28;20050;-70
2021/01/01 02:21:08;;;;;;;12.98;8.18;;;2.80;99.90;;;;;;5039673;28;20065;-70
2021/01/01 02:23:34;;;;;;;14.38;8.65;;;2.80;99.90;;;;;;5040961;28;20091;-70
2021/01/01 02:25:59;;;;;;;13.65;9.25;;;2.90;99.90;;;;;;5023337;28;20038;-70
2021/01/01 02:28:25;;;;;;;12.65;8.35;;;2.80;99.90;;;;;;5037812;28;20030;-70
2021/01/01 02:30:51;;;;;;;16.02;8.80;;;2.90;99.90;;;;;;5059108;28;20522;-70
2021/01/01 02:33:16;;;;;;;13.88;8.98;;;2.90;99.90;;;;;;5025366;28;20151;-70
2021/01/01 02:35:45;;;;;;;13.73;8.27;;;2.90;99.90;;;;;;5057331;28;20072;-70
2021/01/01 02:38:15;;;;;;;14.23;8.18;;;2.90;99.90;;;;;;5023478;28;20524;-70
2021/01/01 02:40:43;;;;;;;13.85;8.27;;;2.90;99.90;;;;;;5057755;28;20036;-70
2021/01/01 02:43:14;;;;;;;13.60;8.77;;;2.90;99.90;;;;;;5024857;28;20017;-70
2021/01/01 02:45:39;;;;;;;12.75;8.45;;;2.90;99.90;;;;;;5025411;28;20025;-70
2021/01/01 02:48:14;;;;;;;12.45;7.70;;;2.90;99.90;;;;;;5053666;28;20017;-70
2021/01/01 02:50:40;;;;;;;15.70;9.38;;;2.90;99.90;;;;;;5040047;28;20017;-70
2021/01/01 02:53:06;;;;;;;14.98;9.60;;;2.90;99.90;;;;;;5023433;28;20025;-71
2021/01/01 02:55:35;;;;;;;14.35;8.57;;;2.80;99.90;;;;;;5024685;28;20037;-70
2021/01/01 02:58:00;;;;;;;18.63;10.70;;;2.80;99.90;;;;;;5056120;28;20064;-70
2021/01/01 03:00:26;;;;;;;18.48;10.48;;;2.80;99.90;;;;;;5022370;28;20374;-70
2021/01/01 03:02:53;;;;;;;16.80;9.70;;;2.80;99.90;;;;;;5024942;28;20025;-70
2021/01/01 03:05:18;;;;;;;17.08;9.80;;;2.90;99.90;;;;;;5022869;28;20095;-70
2021/01/01 03:07:44;;;;;;;15.73;9.10;;;2.90;99.90;;;;;;5025057;28;20587;-70
2021/01/01 03:10:10;;;;;;;15.98;9.48;;;2.90;99.90;;;;;;5024206;28;20037;-70
2021/01/01 03:12:36;;;;;;;14.85;9.77;;;2.90;99.90;;;;;;5025762;28;20056;-70
2021/01/01 03:15:02;;;;;;;15.40;10.02;;;2.90;99.90;;;;;;5029092;28;20041;-70
2021/01/01 03:17:28;;;;;;;13.20;8.93;;;2.90;99.90;;;;;;5016556;28;20051;-69
2021/01/01 03:19:54;;;;;;;16.00;9.82;;;2.90;99.90;;;;;;5013352;28;20056;-70
2021/01/01 03:22:19;;;;;;;15.70;9.60;;;2.90;99.90;;;;;;5013344;28;20045;-70
2021/01/01 03:24:45;;;;;;;16.13;10.07;;;2.90;99.90;;;;;;5016213;28;20041;-70
2021/01/01 03:27:11;;;;;;;17.15;10.30;;;2.90;99.90;;;;;;5021853;28;20042;-70
2021/01/01 03:29:36;;;;;;;17.17;10.45;;;3.00;99.90;;;;;;5036120;28;20080;-70
2021/01/01 03:32:02;;;;;;;16.90;9.68;;;3.00;99.90;;;;;;5023506;28;20061;-70
2021/01/01 03:34:28;;;;;;;13.32;8.65;;;2.90;99.90;;;;;;5021974;28;20036;-73
2021/01/01 03:36:56;;;;;;;16.48;9.63;;;3.00;99.90;;;;;;5022776;28;20041;-74
2021/01/01 03:39:24;;;;;;;17.60;9.88;;;2.90;99.90;;;;;;5025122;28;20432;-74
2021/01/01 03:41:49;;;;;;;16.25;9.25;;;2.90;99.90;;;;;;5056436;28;20044;-73
2021/01/01 03:44:15;;;;;;;16.27;9.93;;;2.90;99.90;;;;;;5024231;28;20356;-73
2021/01/01 03:46:43;;;;;;;15.57;8.95;;;2.90;99.90;;;;;;5025518;28;21770;-74
2021/01/01 03:49:08;;;;;;;15.15;8.95;;;2.90;99.90;;;;;;5024980;28;20044;-74
2021/01/01 03:51:34;;;;;;;15.85;9.52;;;2.90;99.90;;;;;;5055791;28;20370;-73
2021/01/01 03:54:00;;;;;;;16.02;9.55;;;2.80;99.90;;;;;;5025121;28;20061;-74
2021/01/01 03:56:25;;;;;;;16.45;9.50;;;2.90;99.90;;;;;;5023274;28;20026;-73
2021/01/01 03:58:56;;;;;;;15.95;10.05;;;2.90;99.90;;;;;;5023995;28;20072;-73
2021/01/01 04:01:24;;;;;;;17.17;9.57;;;2.80;99.90;;;;;;5023952;28;20060;-73
2021/01/01 04:03:54;;;;;;;16.00;9.18;;;2.90;99.90;;;;;;5025361;28;20033;-73
2021/01/01 04:06:20;;;;;;;15.63;9.57;;;2.90;99.90;;;;;;5029236;28;20647;-73
2021/01/01 04:08:48;;;;;;;15.32;9.68;;;2.80;99.90;;;;;;5058582;28;20100;-74
2021/01/01 04:11:14;;;;;;;16.02;8.88;;;2.80;99.90;;;;;;5018727;28;20041;-73
2021/01/01 04:13:40;;;;;;;14.07;8.48;;;2.80;99.90;;;;;;5016194;28;20037;-73
2021/01/01 04:16:05;;;;;;;14.05;8.48;;;2.80;99.90;;;;;;5017229;28;20072;-73
2021/01/01 04:18:33;;;;;;;14.73;8.77;;;2.80;99.90;;;;;;5031574;28;20080;-73
2021/01/01 04:21:01;;;;;;;14.07;9.02;;;2.80;99.90;;;;;;5022458;28;20496;-73
2021/01/01 04:23:29;;;;;;;14.93;8.45;;;2.80;99.90;;;;;;5026618;28;20514;-73
2021/01/01 04:25:55;;;;;;;14.20;8.68;;;2.80;99.90;;;;;;5024462;28;20095;-73
2021/01/01 04:28:20;;;;;;;13.80;8.50;;;2.80;99.90;;;;;;5016752;28;20034;-73
2021/01/01 04:30:46;;;;;;;14.02;8.10;;;2.90;99.90;;;;;;5032869;28;20803;-73
2021/01/01 04:33:13;;;;;;;13.35;8.60;;;2.90;99.90;;;;;;5016644;28;20065;-73
2021/01/01 04:35:44;;;;;;;12.98;8.13;;;2.80;99.90;;;;;;5022030;28;20044;-73
2021/01/01 04:38:09;;;;;;;12.95;7.95;;;2.90;99.90;;;;;;5027591;28;20034;-73
2021/01/01 04:40:35;;;;;;;13.75;8.38;;;2.80;99.90;;;;;;5018837;28;20500;-73
2021/01/01 04:43:03;;;;;;;13.50;7.90;;;2.80;99.90;;;;;;5026003;28;20029;-73
2021/01/01 04:45:28;;;;;;;13.18;7.97;;;2.80;99.90;;;;;;5023598;28;20076;-73
2021/01/01 04:47:54;;;;;;;14.20;8.10;;;2.80;99.90;;;;;;5031188;28;20656;-73
2021/01/01 04:50:20;;;;;;;12.98;8.15;;;2.80;99.90;;;;;;5049192;28;20034;-74
2021/01/01 04:52:48;;;;;;;11.68;7.45;;;2.80;99.90;;;;;;5049312;28;20057;-73
2021/01/01 04:55:14;;;;;;;12.80;7.70;;;2.80;99.90;;;;;;5047659;28;20061;-73
2021/01/01 04:57:39;;;;;;;14.02;8.05;;;2.80;99.90;;;;;;5031356;28;20033;-73
2021/01/01 05:00:08;;;;;;;13.10;7.30;;;2.80;99.90;;;;;;5059071;28;20018;-74
2021/01/01 05:02:36;;;;;;;12.88;8.30;;;2.80;99.90;;;;;;5027061;28;20060;-74
2021/01/01 05:05:01;;;;;;;12.85;8.13;;;2.80;99.90;;;;;;5020847;28;20037;-73
2021/01/01 05:07:29;;;;;;;12.48;8.02;;;2.80;99.90;;;;;;5017350;28;21863;-73
2021/01/01 05:09:58;;;;;;;13.75;8.15;;;2.80;99.90;;;;;;5019188;28;20074;-73
2021/01/01 05:12:30;;;;;;;15.45;8.50;;;2.80;99.90;;;;;;5037704;28;20077;-73
2021/01/01 05:14:56;;;;;;;15.60;8.60;;;2.80;99.90;;;;;;5049692;28;20041;-74
2021/01/01 05:17:34;;;;;;;13.55;8.32;;;2.80;99.90;;;;;;5017112;28;20033;-73
2021/01/01 05:20:05;;;;;;;14.55;8.68;;;2.80;99.90;;;;;;5048943;28;20345;-74
2021/01/01 05:22:32;;;;;;;15.63;9.50;;;2.80;99.90;;;;;;5054445;28;20025;-74
2021/01/01 05:25:01;;;;;;;15.82;8.93;;;2.80;99.90;;;;;;5051207;28;20109;-74
2021/01/01 05:27:34;;;;;;;15.57;8.55;;;2.80;99.90;;;;;;5027183;28;20061;-74
2021/01/01 05:30:00;;;;;;;15.07;8.38;;;2.80;99.90;;;;;;5026951;28;20021;-73
2021/01/01 05:32:29;;;;;;;12.70;6.80;;;2.80;99.90;;;;;;5017651;28;20446;-73
2021/01/01 05:34:58;;;;;;;15.65;8.27;;;2.80;99.90;;;;;;5045987;28;20033;-74
2021/01/01 05:37:33;;;;;;;14.70;8.10;;;2.70;99.90;;;;;;5047896;28;20451;-73
2021/01/01 05:40:17;;;;;;;13.00;7.68;;;2.80;99.90;;;;;;5015239;28;20121;-73
2021/01/01 05:42:42;;;;;;;13.68;8.07;;;2.80;99.90;;;;;;5031722;28;20045;-73
2021/01/01 05:45:29;;;;;;;12.55;7.90;;;2.80;99.90;;;;;;5028499;28;20022;-73
2021/01/01 05:48:03;;;;;;;14.80;8.80;;;2.80;99.90;;;;;;5016389;28;20586;-73
2021/01/01 05:50:30;;;;;;;14.07;8.35;;;2.80;99.90;;;;;;5015274;28;20082;-73
2021/01/01 05:53:16;;;;;;;13.35;7.90;;;2.80;99.90;;;;;;5015446;28;20068;-73
2021/01/01 05:55:44;;;;;;;12.90;7.28;;;2.80;99.90;;;;;;5048339;28;20029;-73
2021/01/01 05:58:25;;;;;;;12.07;7.25;;;2.80;99.90;;;;;;5016216;28;20079;-73
2021/01/01 06:00:58;;;;;;;13.50;7.80;;;2.90;99.90;;;;;;5047740;28;20025;-73
2021/01/01 06:03:33;;;;;;;12.05;7.03;;;2.80;99.90;;;;;;5014169;28;20026;-73
2021/01/01 06:05:59;;;;;;;9.55;5.80;;;2.90;99.90;;;;;;5045326;28;20033;-73
2021/01/01 06:08:28;;;;;;;10.35;5.28;;;2.90;99.90;;;;;;5046320;28;20038;-73
2021/01/01 06:10:58;;;;;;;9.60;5.82;;;2.90;99.90;;;;;;5015815;28;20033;-74
2021/01/01 06:13:37;;;;;;;9.43;5.00;;;2.90;99.90;;;;;;5028986;28;20120;-73
2021/01/01 06:16:04;;;;;;;9.18;4.97;;;2.90;99.90;;;;;;5013945;28;20029;-73
2021/01/01 06:18:33;;;;;;;9.45;5.20;;;2.90;99.90;;;;;;5041024;28;20042;-73
2021/01/01 06:21:00;;;;;;;7.85;4.25;;;2.90;99.90;;;;;;5047042;28;20025;-73
2021/01/01 06:23:38;;;;;;;7.65;4.47;;;2.90;99.90;;;;;;5014983;28;20038;-73
2021/01/01 06:26:09;;;;;;;8.68;4.43;;;2.90;99.90;;;;;;5026478;28;20030;-73
2021/01/01 06:28:35;;;;;;;9.65;5.07;;;2.90;99.90;;;;;;5013915;28;20036;-72
2021/01/01 06:31:01;;;;;;;9.18;5.43;;;2.90;99.90;;;;;;5014321;28;20025;-73
2021/01/01 06:33:27;;;;;;;8.90;5.00;;;2.90;99.90;;;;;;5023320;28;20044;-73
2021/01/01 06:35:55;;;;;;;7.65;4.07;;;2.90;99.90;;;;;;5054812;28;20038;-73
2021/01/01 06:38:37;;;;;;;8.00;4.95;;;2.90;99.90;;;;;;5011514;28;20064;-73
2021/01/01 06:41:03;;;;;;;5.07;3.05;;;3.00;99.90;;;;;;5053193;28;20113;-73
2021/01/01 06:43:54;;;;;;;7.55;4.40;;;3.00;99.90;;;;;;5026110;28;20021;-73
2021/01/01 06:46:35;;;;;;;7.70;3.80;;;2.90;99.90;;;;;;5023202;28;20030;-73
2021/01/01 06:49:02;;;;;;;7.05;3.50;;;2.90;99.90;;;;;;5021765;28;20034;-73
2021/01/01 06:51:29;;;;;;;6.70;3.42;;;3.00;99.90;;;;;;5044881;28;20029;-73
2021/01/01 06:54:08;;;;;;;6.70;3.40;;;2.90;99.90;;;;;;5016209;28;20037;-73
2021/01/01 06:56:34;;;;;;;7.00;3.33;;;3.00;99.90;;;;;;5027991;28;20120;-73
2021/01/01 06:59:10;;;;;;;5.57;3.03;;;3.00;99.90;;;;;;5030594;28;20022;-73
2021/01/01 07:01:45;;;;;;;6.88;3.20;;;3.00;99.90;;;;;;5014406;28;20030;-73
2021/01/01 07:04:11;;;;;;;5.75;3.25;;;2.90;99.90;;;;;;5045095;28;20026;-73
2021/01/01 07:06:40;;;;;;;6.03;3.30;;;2.90;99.90;;;;;;5029921;28;20367;-73
2021/01/01 07:09:07;;;;;;;6.38;3.40;;;2.90;99.90;;;;;;5015079;28;20029;-73
2021/01/01 07:11:33;;;;;;;6.63;3.45;;;2.90;99.90;;;;;;5017849;28;20079;-73
2021/01/01 07:14:05;;;;;;;6.38;2.95;;;2.90;99.90;;;;;;5056181;28;20090;-73
2021/01/01 07:16:35;;;;;;;6.53;3.07;;;2.90;99.90;;;;;;5050878;28;20044;-73
2021/01/01 07:19:01;;;;;;;7.50;3.50;;;2.90;99.90;;;;;;5027317;28;20125;-73
2021/01/01 07:21:26;;;;;;;7.07;3.58;;;2.90;99.90;;;;;;5047807;28;20091;-73
2021/01/01 07:23:57;;;;;;;5.80;3.40;;;3.00;99.90;;;;;;5048789;28;20360;-73
2021/01/01 07:26:27;;;;;;;6.60;3.50;;;2.90;99.90;;;;;;5037455;28;20056;-73
2021/01/01 07:28:53;;;;;;;6.40;3.58;;;3.00;99.90;;;;;;5019810;28;20568;-73
2021/01/01 07:31:19;;;;;;;6.03;3.58;;;2.90;99.90;;;;;;5015758;28;20418;-73
2021/01/01 07:33:45;;;;;;;5.88;3.13;;;3.00;99.90;;;;;;5013124;28;20030;-73
2021/01/01 07:36:13;;;;;;;7.60;3.67;;;3.00;99.90;;;;;;5027041;28;20034;-73
2021/01/01 07:38:51;;;;;;;5.93;3.08;;;3.00;99.90;;;;;;5014702;28;20580;-73
2021/01/01 07:41:21;;;;;;;5.40;3.08;;;3.00;99.90;;;;;;5045884;28;20034;-73
2021/01/01 07:43:51;;;;;;;5.45;3.17;;;3.00;99.90;;;;;;5043788;28;20877;-73
2021/01/01 07:46:21;;;;;;;5.97;2.85;;;3.00;99.90;;;;;;5044532;28;20029;-73
2021/01/01 07:48:54;;;;;;;5.22;2.47;;;3.00;99.90;;;;;;5013444;28;20030;-73
2021/01/01 07:51:26;;;;;;;6.00;3.00;;;3.00;99.90;;;;;;5011878;28;20790;-73
2021/01/01 07:53:58;;;;;;;4.63;2.40;;;3.00;99.90;;;;;;5015808;28;20034;-73
2021/01/01 07:56:28;;;;;;;4.90;2.42;;;3.00;99.90;;;;;;5013539;28;20034;-73
2021/01/01 07:58:54;;;;;;;5.50;3.08;;;3.00;99.90;;;;;;5024809;28;20049;-73
2021/01/01 08:01:22;;;;;;;5.20;2.78;;;3.00;99.90;;;;;;5021273;28;20055;-73
2021/01/01 08:03:48;;;;;;;6.90;3.00;;;3.10;99.90;;;;;;5013508;28;20030;-73
2021/01/01 08:06:13;;;;;;;5.45;2.80;;;3.10;99.90;;;;;;5034849;28;20115;-73
2021/01/01 08:08:42;;;;;;;4.82;2.50;;;3.10;99.90;;;;;;5022383;28;20869;-73
2021/01/01 08:11:07;;;;;;;5.50;2.47;;;3.10;99.90;;;;;;5022531;28;20042;-73
2021/01/01 08:13:33;;;;;;;4.82;2.70;;;3.10;99.90;;;;;;5020416;28;20117;-73
2021/01/01 08:16:18;;;;;;;4.60;2.40;;;3.10;99.90;;;;;;5032105;28;20133;-73
2021/01/01 08:18:44;;;;;;;6.28;2.67;;;3.10;99.90;;;;;;5053054;28;20145;-73
2021/01/01 08:21:10;;;;;;;5.03;2.35;;;3.10;99.90;;;;;;5056026;28;20104;-73
2021/01/01 08:23:57;;;;;;;4.85;2.42;;;3.10;99.90;;;;;;5038890;28;20022;-73
2021/01/01 08:26:22;;;;;;;4.30;2.50;;;3.10;99.90;;;;;;5044335;28;20041;-72
2021/01/01 08:28:52;;;;;;;5.35;3.00;;;3.10;99.90;;;;;;5044870;28;20033;-73
2021/01/01 08:31:19;;;;;;;5.60;3.10;;;3.20;99.90;;;;;;5026566;28;20056;-71
2021/01/01 08:33:44;;;;;;;6.57;3.15;;;3.20;99.90;;;;;;5045411;28;20033;-71
2021/01/01 08:36:11;;;;;;;6.45;3.15;;;3.20;99.90;;;;;;5045598;28;20036;-71
2021/01/01 08:38:47;;;;;;;5.35;3.05;;;3.20;99.90;;;;;;5046527;28;20093;-71
2021/01/01 08:41:16;;;;;;;4.70;2.70;;;3.20;99.90;;;;;;5022687;28;20021;-71
2021/01/01 08:43:45;;;;;;;5.25;2.70;;;3.20;99.90;;;;;;5018867;28;20026;-70
2021/01/01 08:46:17;;;;;;;5.40;2.78;;;3.10;99.90;;;;;;5014049;28;20034;-71
2021/01/01 08:48:43;;;;;;;;;;;3.20;99.90;;;;;;5047014;28;20140;-71
2021/01/01 08:51:11;;;;;;;4.28;2.40;;;3.10;99.90;;;;;;5025420;28;19917;-71
2021/01/01 08:53:43;;;;;;;5.35;2.60;;;3.10;99.90;;;;;;5055498;28;20030;-70
2021/01/01 08:56:12;;;;;;;5.45;2.80;;;3.10;99.90;;;;;;5029397;28;20041;-71
2021/01/01 08:58:38;;;;;;;6.65;3.13;;;3.10;99.90;;;;;;5023552;28;20516;-71
2021/01/01 09:01:16;;;;;;;5.30;2.80;;;3.20;99.90;;;;;;5057802;28;20025;-71
2021/01/01 09:03:44;;;;;;;5.55;2.63;;;3.20;99.90;;;;;;5018345;28;20553;-71
2021/01/01 09:06:17;;;;;;;5.78;2.85;;;3.20;99.90;;;;;;5029180;28;20056;-70
2021/01/01 09:08:43;;;;;;;5.82;2.65;;;3.20;99.90;;;;;;5023427;28;20072;-71
2021/01/01 09:11:22;;;;;;;5.13;2.47;;;3.20;99.90;;;;;;5025796;28;20057;-71
2021/01/01 09:14:01;;;;;;;7.15;4.03;;;3.20;99.90;;;;;;5045955;28;20546;-72
2021/01/01 09:16:27;;;;;;;8.13;4.00;;;3.30;99.90;;;;;;5017007;28;20041;-71
2021/01/01 09:18:52;;;;;;;7.60;4.50;;;3.20;99.90;;;;;;5029001;28;20488;-71
2021/01/01 09:21:19;;;;;;;7.03;3.80;;;3.30;99.90;;;;;;5015439;28;20503;-71
2021/01/01 09:23:54;;;;;;;7.50;4.30;;;3.30;99.90;;;;;;5016904;28;20032;-71
2021/01/01 09:26:27;;;;;;;6.68;3.90;;;3.30;99.90;;;;;;5015896;28;20072;-71
2021/01/01 09:29:11;;;;;;;6.50;4.28;;;3.40;99.90;;;;;;5028741;28;20040;-71
2021/01/01 09:31:39;;;;;;;10.45;5.50;;;3.40;99.90;;;;;;5029017;28;20087;-71
2021/01/01 09:34:08;;;;;;;11.82;6.53;;;3.40;99.90;;;;;;5037758;28;20475;-71
2021/01/01 09:36:43;;;;;;;9.32;5.40;;;3.40;99.90;;;;;;5029969;28;20037;-71
2021/01/01 09:39:13;;;;;;;9.60;5.22;;;3.40;99.90;;;;;;5039311;28;20111;-73
2021/01/01 09:41:49;;;;;;;10.45;5.93;;;3.50;99.90;;;;;;5049959;28;20030;-71
2021/01/01 09:44:15;;;;;;;9.63;5.50;;;3.50;99.90;;;;;;5026756;28;20073;-71
2021/01/01 09:46:45;;;;;;;10.48;6.15;;;3.60;99.90;;;;;;5025317;28;20430;-71
2021/01/01 09:49:13;;;;;;;11.38;6.15;;;3.60;99.90;;;;;;5057936;28;20076;-71
2021/01/01 09:51:39;;;;;;;12.90;7.00;;;3.70;99.90;;;;;;5026568;28;20022;-72
2021/01/01 09:54:05;;;;;;;11.90;6.93;;;3.70;99.90;;;;;;5042169;28;20467;-72
2021/01/01 09:56:34;;;;;;;14.20;7.40;;;3.70;99.90;;;;;;5057452;28;20224;-72
2021/01/01 09:59:02;;;;;;;15.13;8.88;;;3.80;99.90;;;;;;5039177;28;20907;-71
2021/01/01 10:01:33;;;;;;;16.35;8.35;;;3.70;99.90;;;;;;5055968;28;20030;-71
2021/01/01 10:03:59;;;;;;;17.35;8.75;;;3.80;99.90;;;;;;5039921;28;20036;-72
2021/01/01 10:06:27;;;;;;;16.13;9.00;;;3.80;99.90;;;;;;5026272;28;20029;-72
2021/01/01 10:08:52;;;;;;;16.45;9.32;;;3.80;99.90;;;;;;5056938;28;20052;-72
2021/01/01 10:11:20;;;;;;;15.73;9.10;;;3.80;99.90;;;;;;5025593;28;20120;-71
2021/01/01 10:13:48;;;;;;;16.48;9.57;;;3.80;99.90;;;;;;5025846;28;20196;-72
2021/01/01 10:16:14;;;;;;;15.82;9.48;;;3.80;99.90;;;;;;5025389;28;20387;-71
2021/01/01 10:18:40;;;;;;;17.58;9.95;;;3.80;99.90;;;;;;5026892;28;20124;-71
2021/01/01 10:21:07;;;;;;;16.25;9.52;;;3.80;99.90;;;;;;5042765;28;20029;-71
2021/01/01 10:23:36;;;;;;;18.15;9.93;;;3.80;99.90;;;;;;5058060;28;20029;-71
2021/01/01 10:26:02;;;;;;;16.95;9.48;;;3.90;99.90;;;;;;5026344;28;20178;-71
2021/01/01 10:28:28;;;;;;;16.00;9.30;;;3.90;99.90;;;;;;5039975;28;20075;-71
2021/01/01 10:30:53;;;;;;;16.75;9.30;;;3.90;99.90;;;;;;5026396;28;20037;-71
2021/01/01 10:33:19;;;;;;;14.48;8.38;;;3.90;99.90;;;;;;5024691;28;20044;-71
2021/01/01 10:35:45;;;;;;;15.23;8.70;;;3.90;99.90;;;;;;5025742;28;20029;-71
2021/01/01 10:38:13;;;;;;;17.63;8.90;;;3.90;99.90;;;;;;5024968;28;20549;-71
2021/01/01 10:40:38;;;;;;;18.90;10.27;;;3.90;99.90;;;;;;5024127;28;20071;-71
2021/01/01 10:43:04;;;;;;;18.80;10.10;;;3.90;99.90;;;;;;5023553;28;20076;-71
2021/01/01 10:45:32;;;;;;;17.13;9.77;;;3.90;99.90;;;;;;5024789;28;20030;-71
2021/01/01 10:47:58;;;;;;;16.65;10.65;;;3.90;99.90;;;;;;5026496;28;20091;-71
2021/01/01 10:50:23;;;;;;;16.83;9.85;;;3.90;99.90;;;;;;5024512;28;20238;-71
2021/01/01 10:52:54;;;;;;;17.35;9.25;;;3.90;99.90;;;;;;5026443;28;20052;-71
2021/01/01 10:55:19;;;;;;;15.90;9.50;;;4.00;99.90;;;;;;5025334;28;20073;-71
2021/01/01 10:57:45;;;;;;;15.57;8.70;;;4.00;99.90;;;;;;5024918;28;20025;-71
2021/01/01 11:00:13;;;;;;;18.27;9.15;;;4.00;99.90;;;;;;5025917;28;20057;-71
2021/01/01 11:02:41;;;;;;;15.63;8.90;;;4.00;99.90;;;;;;5025030;28;20034;-71
2021/01/01 11:05:10;;;;;;;36.42;22.63;;;3.90;99.90;;;;;;5039163;28;20040;-71
2021/01/01 11:07:38;;;;;;;27.13;17.65;;;3.90;99.90;;;;;;5040980;28;20034;-71
2021/01/01 11:10:06;;;;;;;15.30;10.18;;;3.90;99.90;;;;;;5018887;28;20037;-71
2021/01/01 11:12:33;;;;;;;13.07;9.30;;;3.90;99.90;;;;;;5023804;28;20127;-71
2021/01/01 12:26:03;;;;;;;12.43;8.00;;;3.90;99.90;;;;;;5061231;28;20018;-71
2021/01/01 12:28:29;;;;;;;18.58;11.55;;;3.90;99.90;;;;;;5058303;28;20040;-71
2021/01/01 12:30:54;;;;;;;16.85;10.90;;;3.90;99.90;;;;;;5029278;28;20029;-71
2021/01/01 12:33:22;;;;;;;13.95;8.90;;;3.90;99.90;;;;;;5009493;28;20025;-71
2021/01/01 12:35:48;;;;;;;17.58;10.20;;;3.90;99.90;;;;;;5041858;28;20108;-72
2021/01/01 12:38:16;;;;;;;14.18;9.05;;;3.90;99.90;;;;;;5043714;28;20889;-72
2021/01/01 12:40:41;;;;;;;12.18;7.75;;;3.90;99.90;;;;;;5028382;28;20052;-71
2021/01/01 12:43:07;;;;;;;11.80;7.93;;;3.90;99.90;;;;;;5027363;28;20034;-72
2021/01/01 12:45:32;;;;;;;12.98;7.78;;;3.90;99.90;;;;;;5029013;28;20034;-71
2021/01/01 12:48:01;;;;;;;15.43;9.32;;;3.90;99.90;;;;;;5027696;28;20043;-71
2021/01/01 12:50:26;;;;;;;13.63;8.13;;;3.90;99.90;;;;;;5011183;28;20064;-71
2021/01/01 12:52:55;;;;;;;14.40;8.68;;;3.90;99.90;;;;;;5025007;28;20854;-71
2021/01/01 12:55:21;;;;;;;15.55;9.55;;;4.00;99.90;;;;;;5022789;28;20473;-71
2021/01/01 12:57:46;;;;;;;14.52;8.65;;;4.00;99.90;;;;;;5039173;28;20092;-72
2021/01/01 13:00:13;;;;;;;13.07;8.43;;;3.90;99.90;;;;;;5026742;28;20061;-71
2021/01/01 13:02:41;;;;;;;17.77;10.23;;;4.00;99.90;;;;;;5060096;28;20034;-71
2021/01/01 13:05:09;;;;;;;16.73;9.90;;;4.00;99.90;;;;;;5043823;28;20056;-72
2021/01/01 13:07:38;;;;;;;16.02;9.20;;;4.00;99.90;;;;;;5028085;28;20097;-71
2021/01/01 13:10:06;;;;;;;14.48;8.93;;;4.00;99.90;;;;;;5027240;28;20034;-71
2021/01/01 13:12:32;;;;;;;13.32;8.55;;;4.00;99.90;;;;;;5011404;28;20033;-72
2021/01/01 13:15:00;;;;;;;15.95;10.32;;;3.90;99.90;;;;;;5027198;28;20021;-71
2021/01/01 13:17:26;;;;;;;14.20;9.43;;;4.00;99.90;;;;;;4680248;28;9999966;-72
2021/01/01 13:19:52;;;;;;;14.63;8.95;;;4.00;99.90;;;;;;5056396;28;20553;-72
2021/01/01 13:22:20;;;;;;;11.98;7.47;;;3.90;99.90;;;;;;5024798;28;20029;-72
2021/01/01 13:24:46;;;;;;;14.32;8.82;;;3.90;99.90;;;;;;5023744;28;20036;-72
2021/01/01 13:27:17;;;;;;;11.43;7.70;;;4.00;99.90;;;;;;5025097;28;20029;-71
2021/01/01 13:29:45;;;;;;;12.77;7.72;;;4.00;99.90;;;;;;5025999;28;20030;-72
2021/01/01 13:32:11;;;;;;;11.45;7.78;;;4.00;99.90;;;;;;5038432;28;20036;-74
2021/01/01 13:34:42;;;;;;;12.60;8.27;;;4.00;99.90;;;;;;5023247;28;20030;-72
2021/01/01 13:37:07;;;;;;;11.50;7.50;;;4.10;99.90;;;;;;5022927;28;20029;-72
2021/01/01 13:39:33;;;;;;;9.52;6.40;;;4.10;99.90;;;;;;5023076;28;20462;-71
2021/01/01 13:42:01;;;;;;;10.90;6.70;;;4.20;99.90;;;;;;5024116;28;20179;-74
2021/01/01 13:44:32;;;;;;;11.23;6.88;;;4.20;99.90;;;;;;5023390;28;20026;-71
2021/01/01 13:46:58;;;;;;;11.18;6.70;;;4.30;99.90;;;;;;5024931;28;20029;-71
2021/01/01 13:49:23;;;;;;;10.25;6.32;;;4.30;99.90;;;;;;5025310;28;20033;-74
2021/01/01 13:51:49;;;;;;;10.55;6.68;;;4.30;99.90;;;;;;5023594;28;20021;-73
2021/01/01 13:54:15;;;;;;;12.40;7.70;;;4.40;99.90;;;;;;5023968;28;20037;-73
2021/01/01 13:56:40;;;;;;;11.05;6.75;;;4.40;99.90;;;;;;5023423;28;20483;-74
2021/01/01 13:59:06;;;;;;;11.23;6.65;;;4.40;99.90;;;;;;5024058;28;20703;-74
2021/01/01 14:01:34;;;;;;;12.93;7.15;;;4.40;99.90;;;;;;5022860;28;20492;-74
2021/01/01 14:04:02;;;;;;;11.68;7.60;;;4.40;99.90;;;;;;5024902;28;20037;-74